sensor_id;sensor_type;location;lat;lon;timestamp;P1;durP1;ratioP1;P2;durP2;ratioP2
20830;SDS011;10576;53.556;9.868;2023-01-24T00:01:27;23.63;;;16.03;;
20830;SDS011;10576;53.556;9.868;2023-01-24T00:03:52;22.10;;;15.17;;
20830;SDS011;10576;53.556;9.868;2023-01-24T00:06:18;21.98;;;15.07;;
20830;SDS011;10576;53.556;9.868;2023-01-24T00:08:44;25.33;;;15.60;;
20830;SDS011;10576;53.556;9.868;2023-01-24T00:11:10;22.80;;;15.30;;
20830;SDS011;10576;53.556;9.868;2023-01-24T00:13:37;24.20;;;15.30;;
20830;SDS011;10576;53.556;9.868;2023-01-24T00:18:33;23.52;;;15.90;;
20830;SDS011;10576;53.556;9.868;2023-01-24T00:21:01;25.02;;;15.85;;
20830;SDS011;10576;53.556;9.868;2023-01-24T00:23:37;23.30;;;15.48;;
20830;SDS011;10576;53.556;9.868;2023-01-24T00:26:05;23.35;;;15.50;;
20830;SDS011;10576;53.556;9.868;2023-01-24T00:28:31;25.98;;;15.98;;
20830;SDS011;10576;53.556;9.868;2023-01-24T00:30:57;21.85;;;15.00;;
20830;SDS011;10576;53.556;9.868;2023-01-24T00:33:23;24.00;;;15.13;;
20830;SDS011;10576;53.556;9.868;2023-01-24T00:35:50;24.98;;;16.00;;
20830;SDS011;10576;53.556;9.868;2023-01-24T00:38:19;24.95;;;15.45;;
20830;SDS011;10576;53.556;9.868;2023-01-24T00:40:45;24.45;;;15.63;;
20830;SDS011;10576;53.556;9.868;2023-01-24T00:43:11;25.23;;;15.57;;
20830;SDS011;10576;53.556;9.868;2023-01-24T00:45:38;23.08;;;15.68;;
20830;SDS011;10576;53.556;9.868;2023-01-24T00:48:04;26.10;;;15.23;;
20830;SDS011;10576;53.556;9.868;2023-01-24T00:50:31;23.92;;;15.25;;
20830;SDS011;10576;53.556;9.868;2023-01-24T00:52:57;22.80;;;14.90;;
20830;SDS011;10576;53.556;9.868;2023-01-24T00:55:22;26.55;;;16.23;;
20830;SDS011;10576;53.556;9.868;2023-01-24T00:57:48;23.33;;;15.40;;
20830;SDS011;10576;53.556;9.868;2023-01-24T01:00:14;22.65;;;15.48;;
20830;SDS011;10576;53.556;9.868;2023-01-24T01:02:40;25.13;;;16.25;;
20830;SDS011;10576;53.556;9.868;2023-01-24T01:05:07;25.42;;;16.08;;
20830;SDS011;10576;53.556;9.868;2023-01-24T01:07:32;24.47;;;15.70;;
20830;SDS011;10576;53.556;9.868;2023-01-24T01:09:58;23.02;;;15.55;;
20830;SDS011;10576;53.556;9.868;2023-01-24T01:12:24;26.40;;;16.23;;
20830;SDS011;10576;53.556;9.868;2023-01-24T01:14:50;28.75;;;16.30;;
20830;SDS011;10576;53.556;9.868;2023-01-24T01:17:16;27.35;;;16.20;;
20830;SDS011;10576;53.556;9.868;2023-01-24T01:19:42;24.42;;;16.00;;
20830;SDS011;10576;53.556;9.868;2023-01-24T01:22:07;26.50;;;16.25;;
20830;SDS011;10576;53.556;9.868;2023-01-24T01:24:34;25.35;;;16.05;;
20830;SDS011;10576;53.556;9.868;2023-01-24T01:26:59;23.60;;;15.10;;
20830;SDS011;10576;53.556;9.868;2023-01-24T01:29:25;24.88;;;16.23;;
20830;SDS011;10576;53.556;9.868;2023-01-24T01:31:51;27.37;;;16.70;;
20830;SDS011;10576;53.556;9.868;2023-01-24T01:34:17;27.33;;;16.27;;
20830;SDS011;10576;53.556;9.868;2023-01-24T01:36:43;26.33;;;16.20;;
20830;SDS011;10576;53.556;9.868;2023-01-24T01:39:09;25.10;;;16.70;;
20830;SDS011;10576;53.556;9.868;2023-01-24T01:41:35;29.13;;;16.75;;
20830;SDS011;10576;53.556;9.868;2023-01-24T01:47:01;29.08;;;16.48;;
20830;SDS011;10576;53.556;9.868;2023-01-24T01:49:27;28.63;;;16.63;;
20830;SDS011;10576;53.556;9.868;2023-01-24T01:52:01;27.27;;;16.85;;
20830;SDS011;10576;53.556;9.868;2023-01-24T01:54:33;29.25;;;16.52;;
20830;SDS011;10576;53.556;9.868;2023-01-24T01:57:12;28.23;;;16.77;;
20830;SDS011;10576;53.556;9.868;2023-01-24T01:59:43;27.88;;;16.42;;
20830;SDS011;10576;53.556;9.868;2023-01-24T02:02:10;28.00;;;16.15;;
20830;SDS011;10576;53.556;9.868;2023-01-24T02:04:38;25.92;;;16.17;;
20830;SDS011;10576;53.556;9.868;2023-01-24T02:07:09;23.35;;;15.02;;
20830;SDS011;10576;53.556;9.868;2023-01-24T02:09:47;27.00;;;15.98;;
20830;SDS011;10576;53.556;9.868;2023-01-24T02:12:18;25.27;;;15.05;;
20830;SDS011;10576;53.556;9.868;2023-01-24T02:14:51;23.20;;;14.20;;
20830;SDS011;10576;53.556;9.868;2023-01-24T02:17:38;19.73;;;13.50;;
20830;SDS011;10576;53.556;9.868;2023-01-24T02:25:16;22.43;;;14.53;;
20830;SDS011;10576;53.556;9.868;2023-01-24T02:27:51;23.48;;;14.60;;
20830;SDS011;10576;53.556;9.868;2023-01-24T02:30:17;19.33;;;12.65;;
20830;SDS011;10576;53.556;9.868;2023-01-24T02:32:43;20.60;;;13.80;;
20830;SDS011;10576;53.556;9.868;2023-01-24T02:35:26;20.47;;;12.30;;
20830;SDS011;10576;53.556;9.868;2023-01-24T02:37:52;18.25;;;13.07;;
20830;SDS011;10576;53.556;9.868;2023-01-24T02:40:18;24.70;;;14.00;;
20830;SDS011;10576;53.556;9.868;2023-01-24T02:42:44;18.83;;;12.85;;
20830;SDS011;10576;53.556;9.868;2023-01-24T02:45:16;22.08;;;14.07;;
20830;SDS011;10576;53.556;9.868;2023-01-24T02:47:45;22.50;;;13.82;;
20830;SDS011;10576;53.556;9.868;2023-01-24T02:50:13;21.00;;;14.00;;
20830;SDS011;10576;53.556;9.868;2023-01-24T02:52:40;20.85;;;13.27;;
20830;SDS011;10576;53.556;9.868;2023-01-24T02:55:25;19.13;;;13.10;;
20830;SDS011;10576;53.556;9.868;2023-01-24T02:57:51;18.23;;;12.27;;
20830;SDS011;10576;53.556;9.868;2023-01-24T03:00:35;18.98;;;11.60;;
20830;SDS011;10576;53.556;9.868;2023-01-24T03:03:02;17.07;;;11.63;;
20830;SDS011;10576;53.556;9.868;2023-01-24T03:05:28;15.65;;;11.73;;
20830;SDS011;10576;53.556;9.868;2023-01-24T03:08:04;18.20;;;12.82;;
20830;SDS011;10576;53.556;9.868;2023-01-24T03:10:31;23.85;;;14.02;;
20830;SDS011;10576;53.556;9.868;2023-01-24T03:12:57;20.60;;;13.95;;
20830;SDS011;10576;53.556;9.868;2023-01-24T03:15:41;18.90;;;13.80;;
20830;SDS011;10576;53.556;9.868;2023-01-24T03:18:26;23.55;;;14.80;;
20830;SDS011;10576;53.556;9.868;2023-01-24T03:21:10;21.35;;;14.40;;
20830;SDS011;10576;53.556;9.868;2023-01-24T03:23:54;20.60;;;13.57;;
20830;SDS011;10576;53.556;9.868;2023-01-24T03:26:38;19.07;;;12.97;;
20830;SDS011;10576;53.556;9.868;2023-01-24T03:29:23;20.08;;;14.10;;
20830;SDS011;10576;53.556;9.868;2023-01-24T03:32:07;20.98;;;14.23;;
20830;SDS011;10576;53.556;9.868;2023-01-24T03:34:52;21.00;;;14.23;;
20830;SDS011;10576;53.556;9.868;2023-01-24T03:37:18;20.98;;;13.98;;
20830;SDS011;10576;53.556;9.868;2023-01-24T03:40:08;20.13;;;14.27;;
20830;SDS011;10576;53.556;9.868;2023-01-24T03:42:36;25.92;;;16.42;;
20830;SDS011;10576;53.556;9.868;2023-01-24T03:45:12;23.83;;;15.57;;
20830;SDS011;10576;53.556;9.868;2023-01-24T03:47:41;24.42;;;15.82;;
20830;SDS011;10576;53.556;9.868;2023-01-24T03:50:20;28.10;;;17.83;;
20830;SDS011;10576;53.556;9.868;2023-01-24T03:53:26;28.88;;;18.70;;
20830;SDS011;10576;53.556;9.868;2023-01-24T03:56:00;34.67;;;20.60;;
20830;SDS011;10576;53.556;9.868;2023-01-24T03:58:27;38.08;;;21.65;;
20830;SDS011;10576;53.556;9.868;2023-01-24T04:00:54;41.67;;;24.15;;
20830;SDS011;10576;53.556;9.868;2023-01-24T04:03:20;48.15;;;26.92;;
20830;SDS011;10576;53.556;9.868;2023-01-24T04:05:46;41.28;;;24.63;;
20830;SDS011;10576;53.556;9.868;2023-01-24T04:08:12;40.42;;;23.98;;
20830;SDS011;10576;53.556;9.868;2023-01-24T04:10:38;45.17;;;25.48;;
20830;SDS011;10576;53.556;9.868;2023-01-24T04:13:04;42.13;;;25.48;;
20830;SDS011;10576;53.556;9.868;2023-01-24T04:15:30;47.90;;;26.77;;
20830;SDS011;10576;53.556;9.868;2023-01-24T04:17:58;50.05;;;28.63;;
20830;SDS011;10576;53.556;9.868;2023-01-24T04:20:25;48.90;;;29.35;;
20830;SDS011;10576;53.556;9.868;2023-01-24T04:22:53;47.67;;;28.88;;
20830;SDS011;10576;53.556;9.868;2023-01-24T04:25:19;50.28;;;28.00;;
20830;SDS011;10576;53.556;9.868;2023-01-24T04:27:45;47.72;;;27.42;;
20830;SDS011;10576;53.556;9.868;2023-01-24T04:30:12;39.40;;;23.52;;
20830;SDS011;10576;53.556;9.868;2023-01-24T04:32:38;38.17;;;22.80;;
20830;SDS011;10576;53.556;9.868;2023-01-24T04:35:05;31.90;;;19.95;;
20830;SDS011;10576;53.556;9.868;2023-01-24T04:37:31;30.95;;;19.50;;
20830;SDS011;10576;53.556;9.868;2023-01-24T04:39:57;25.52;;;16.40;;
20830;SDS011;10576;53.556;9.868;2023-01-24T04:42:23;28.63;;;17.50;;
20830;SDS011;10576;53.556;9.868;2023-01-24T04:44:49;29.45;;;18.17;;
20830;SDS011;10576;53.556;9.868;2023-01-24T04:47:15;26.92;;;16.55;;
20830;SDS011;10576;53.556;9.868;2023-01-24T04:49:41;24.27;;;15.85;;
20830;SDS011;10576;53.556;9.868;2023-01-24T04:52:10;24.40;;;15.77;;
20830;SDS011;10576;53.556;9.868;2023-01-24T04:54:37;27.75;;;15.55;;
20830;SDS011;10576;53.556;9.868;2023-01-24T04:57:03;20.77;;;14.98;;
20830;SDS011;10576;53.556;9.868;2023-01-24T04:59:30;20.95;;;14.35;;
20830;SDS011;10576;53.556;9.868;2023-01-24T05:01:55;24.50;;;14.95;;
20830;SDS011;10576;53.556;9.868;2023-01-24T05:04:21;19.30;;;13.95;;
20830;SDS011;10576;53.556;9.868;2023-01-24T05:06:47;19.87;;;14.10;;
20830;SDS011;10576;53.556;9.868;2023-01-24T05:09:13;20.33;;;14.30;;
20830;SDS011;10576;53.556;9.868;2023-01-24T05:11:39;19.93;;;13.87;;
20830;SDS011;10576;53.556;9.868;2023-01-24T05:14:05;19.63;;;13.60;;
20830;SDS011;10576;53.556;9.868;2023-01-24T05:16:32;23.65;;;13.10;;
20830;SDS011;10576;53.556;9.868;2023-01-24T05:18:58;20.35;;;13.25;;
20830;SDS011;10576;53.556;9.868;2023-01-24T05:21:24;15.53;;;12.43;;
20830;SDS011;10576;53.556;9.868;2023-01-24T05:23:50;19.08;;;12.48;;
20830;SDS011;10576;53.556;9.868;2023-01-24T05:26:18;18.80;;;12.73;;
20830;SDS011;10576;53.556;9.868;2023-01-24T05:28:44;19.90;;;13.13;;
20830;SDS011;10576;53.556;9.868;2023-01-24T05:31:10;15.68;;;11.95;;
20830;SDS011;10576;53.556;9.868;2023-01-24T05:33:36;17.25;;;12.18;;
20830;SDS011;10576;53.556;9.868;2023-01-24T05:36:02;15.65;;;11.38;;
20830;SDS011;10576;53.556;9.868;2023-01-24T05:38:30;16.33;;;11.50;;
20830;SDS011;10576;53.556;9.868;2023-01-24T05:41:03;15.82;;;11.07;;
20830;SDS011;10576;53.556;9.868;2023-01-24T05:43:30;13.95;;;10.68;;
20830;SDS011;10576;53.556;9.868;2023-01-24T05:45:57;16.02;;;11.30;;
20830;SDS011;10576;53.556;9.868;2023-01-24T05:48:24;15.98;;;11.23;;
20830;SDS011;10576;53.556;9.868;2023-01-24T05:50:55;14.85;;;10.90;;
20830;SDS011;10576;53.556;9.868;2023-01-24T05:53:21;14.05;;;10.90;;
20830;SDS011;10576;53.556;9.868;2023-01-24T05:55:47;14.60;;;10.85;;
20830;SDS011;10576;53.556;9.868;2023-01-24T05:58:13;15.90;;;10.98;;
20830;SDS011;10576;53.556;9.868;2023-01-24T06:00:39;14.73;;;10.30;;
20830;SDS011;10576;53.556;9.868;2023-01-24T06:03:04;13.68;;;10.38;;
20830;SDS011;10576;53.556;9.868;2023-01-24T06:05:30;14.02;;;9.30;;
20830;SDS011;10576;53.556;9.868;2023-01-24T06:07:56;11.93;;;9.17;;
20830;SDS011;10576;53.556;9.868;2023-01-24T06:10:22;12.35;;;9.35;;
20830;SDS011;10576;53.556;9.868;2023-01-24T06:12:47;11.93;;;9.38;;
20830;SDS011;10576;53.556;9.868;2023-01-24T06:15:13;12.48;;;9.55;;
20830;SDS011;10576;53.556;9.868;2023-01-24T06:17:39;11.30;;;8.57;;
20830;SDS011;10576;53.556;9.868;2023-01-24T06:20:05;11.57;;;9.27;;
20830;SDS011;10576;53.556;9.868;2023-01-24T06:25:13;12.25;;;9.10;;
20830;SDS011;10576;53.556;9.868;2023-01-24T06:27:44;10.70;;;8.73;;
20830;SDS011;10576;53.556;9.868;2023-01-24T06:30:11;12.40;;;9.25;;
20830;SDS011;10576;53.556;9.868;2023-01-24T06:38:30;10.73;;;8.50;;
20830;SDS011;10576;53.556;9.868;2023-01-24T06:40:56;10.37;;;8.70;;
20830;SDS011;10576;53.556;9.868;2023-01-24T06:43:24;10.68;;;8.57;;
20830;SDS011;10576;53.556;9.868;2023-01-24T06:45:50;12.07;;;9.32;;
20830;SDS011;10576;53.556;9.868;2023-01-24T06:48:16;11.95;;;9.13;;
20830;SDS011;10576;53.556;9.868;2023-01-24T06:50:42;12.43;;;9.10;;
20830;SDS011;10576;53.556;9.868;2023-01-24T06:53:07;11.40;;;8.57;;
20830;SDS011;10576;53.556;9.868;2023-01-24T06:55:33;12.63;;;9.30;;
20830;SDS011;10576;53.556;9.868;2023-01-24T06:58:00;12.10;;;9.30;;
20830;SDS011;10576;53.556;9.868;2023-01-24T07:00:27;12.77;;;9.57;;
20830;SDS011;10576;53.556;9.868;2023-01-24T07:03:04;12.52;;;9.45;;
20830;SDS011;10576;53.556;9.868;2023-01-24T07:05:34;10.10;;;7.90;;
20830;SDS011;10576;53.556;9.868;2023-01-24T07:08:01;9.87;;;7.87;;
20830;SDS011;10576;53.556;9.868;2023-01-24T07:10:27;11.40;;;8.67;;
20830;SDS011;10576;53.556;9.868;2023-01-24T07:12:53;12.25;;;8.20;;
20830;SDS011;10576;53.556;9.868;2023-01-24T07:15:20;10.15;;;7.75;;
20830;SDS011;10576;53.556;9.868;2023-01-24T07:17:45;10.90;;;8.30;;
20830;SDS011;10576;53.556;9.868;2023-01-24T07:20:12;11.82;;;8.63;;
20830;SDS011;10576;53.556;9.868;2023-01-24T07:22:38;13.68;;;9.02;;
20830;SDS011;10576;53.556;9.868;2023-01-24T07:25:09;12.15;;;9.15;;
20830;SDS011;10576;53.556;9.868;2023-01-24T07:27:40;11.10;;;9.13;;
20830;SDS011;10576;53.556;9.868;2023-01-24T07:30:07;11.20;;;9.10;;
20830;SDS011;10576;53.556;9.868;2023-01-24T07:32:33;10.63;;;8.50;;
20830;SDS011;10576;53.556;9.868;2023-01-24T07:34:59;11.90;;;8.80;;
20830;SDS011;10576;53.556;9.868;2023-01-24T07:37:24;12.37;;;8.97;;
20830;SDS011;10576;53.556;9.868;2023-01-24T07:39:50;11.15;;;8.48;;
20830;SDS011;10576;53.556;9.868;2023-01-24T07:42:16;10.77;;;8.50;;
20830;SDS011;10576;53.556;9.868;2023-01-24T07:44:41;11.30;;;8.45;;
20830;SDS011;10576;53.556;9.868;2023-01-24T07:47:07;12.17;;;8.83;;
20830;SDS011;10576;53.556;9.868;2023-01-24T07:49:33;10.70;;;8.50;;
20830;SDS011;10576;53.556;9.868;2023-01-24T07:51:58;12.20;;;8.57;;
20830;SDS011;10576;53.556;9.868;2023-01-24T07:54:24;12.23;;;9.10;;
20830;SDS011;10576;53.556;9.868;2023-01-24T07:56:49;10.80;;;9.10;;
20830;SDS011;10576;53.556;9.868;2023-01-24T07:59:16;10.95;;;8.50;;
20830;SDS011;10576;53.556;9.868;2023-01-24T08:01:42;10.68;;;9.35;;
20830;SDS011;10576;53.556;9.868;2023-01-24T08:04:08;10.82;;;8.77;;
20830;SDS011;10576;53.556;9.868;2023-01-24T08:06:34;12.65;;;9.48;;
20830;SDS011;10576;53.556;9.868;2023-01-24T08:09:00;12.38;;;9.25;;
20830;SDS011;10576;53.556;9.868;2023-01-24T08:11:26;12.18;;;9.20;;
20830;SDS011;10576;53.556;9.868;2023-01-24T08:13:51;13.10;;;9.27;;
20830;SDS011;10576;53.556;9.868;2023-01-24T08:16:17;14.20;;;9.60;;
20830;SDS011;10576;53.556;9.868;2023-01-24T08:18:43;12.23;;;8.95;;
20830;SDS011;10576;53.556;9.868;2023-01-24T08:21:09;11.38;;;9.10;;
20830;SDS011;10576;53.556;9.868;2023-01-24T08:23:35;12.85;;;9.10;;
20830;SDS011;10576;53.556;9.868;2023-01-24T08:26:01;11.45;;;8.90;;
20830;SDS011;10576;53.556;9.868;2023-01-24T08:28:27;9.85;;;8.48;;
20830;SDS011;10576;53.556;9.868;2023-01-24T08:30:56;10.80;;;8.50;;
20830;SDS011;10576;53.556;9.868;2023-01-24T08:33:22;12.13;;;8.57;;
20830;SDS011;10576;53.556;9.868;2023-01-24T08:35:48;12.57;;;9.15;;
20830;SDS011;10576;53.556;9.868;2023-01-24T08:38:14;12.43;;;8.43;;
20830;SDS011;10576;53.556;9.868;2023-01-24T08:40:40;12.82;;;9.50;;
20830;SDS011;10576;53.556;9.868;2023-01-24T08:43:07;13.38;;;9.10;;
20830;SDS011;10576;53.556;9.868;2023-01-24T08:45:32;12.10;;;8.93;;
20830;SDS011;10576;53.556;9.868;2023-01-24T08:47:58;11.52;;;8.55;;
20830;SDS011;10576;53.556;9.868;2023-01-24T08:50:24;13.02;;;9.20;;
20830;SDS011;10576;53.556;9.868;2023-01-24T08:52:53;14.23;;;10.47;;
20830;SDS011;10576;53.556;9.868;2023-01-24T08:55:19;12.48;;;9.52;;
20830;SDS011;10576;53.556;9.868;2023-01-24T08:57:45;13.50;;;9.33;;
20830;SDS011;10576;53.556;9.868;2023-01-24T09:00:11;12.90;;;9.60;;
20830;SDS011;10576;53.556;9.868;2023-01-24T09:02:37;13.63;;;9.82;;
20830;SDS011;10576;53.556;9.868;2023-01-24T09:05:04;13.02;;;8.95;;
20830;SDS011;10576;53.556;9.868;2023-01-24T09:07:31;13.32;;;9.13;;
20830;SDS011;10576;53.556;9.868;2023-01-24T09:09:56;12.70;;;9.30;;
20830;SDS011;10576;53.556;9.868;2023-01-24T09:12:22;11.65;;;9.45;;
20830;SDS011;10576;53.556;9.868;2023-01-24T09:14:48;13.63;;;8.65;;
20830;SDS011;10576;53.556;9.868;2023-01-24T09:17:13;12.93;;;8.97;;
20830;SDS011;10576;53.556;9.868;2023-01-24T09:19:39;13.67;;;9.70;;
20830;SDS011;10576;53.556;9.868;2023-01-24T09:22:04;14.80;;;9.33;;
20830;SDS011;10576;53.556;9.868;2023-01-24T09:24:30;12.37;;;9.17;;
20830;SDS011;10576;53.556;9.868;2023-01-24T09:26:56;14.10;;;9.57;;
20830;SDS011;10576;53.556;9.868;2023-01-24T09:29:21;12.45;;;9.05;;
20830;SDS011;10576;53.556;9.868;2023-01-24T09:31:47;13.23;;;9.32;;
20830;SDS011;10576;53.556;9.868;2023-01-24T09:34:13;14.15;;;9.23;;
20830;SDS011;10576;53.556;9.868;2023-01-24T09:36:39;10.88;;;9.13;;
20830;SDS011;10576;53.556;9.868;2023-01-24T09:39:05;11.83;;;9.40;;
20830;SDS011;10576;53.556;9.868;2023-01-24T09:44:11;13.60;;;9.53;;
20830;SDS011;10576;53.556;9.868;2023-01-24T09:46:44;12.85;;;9.68;;
20830;SDS011;10576;53.556;9.868;2023-01-24T09:49:28;11.70;;;9.63;;
20830;SDS011;10576;53.556;9.868;2023-01-24T09:52:09;13.02;;;9.35;;
20830;SDS011;10576;53.556;9.868;2023-01-24T09:54:50;12.85;;;9.18;;
20830;SDS011;10576;53.556;9.868;2023-01-24T10:00:29;11.77;;;9.38;;
20830;SDS011;10576;53.556;9.868;2023-01-24T10:02:59;12.05;;;9.55;;
20830;SDS011;10576;53.556;9.868;2023-01-24T10:05:34;14.97;;;10.00;;
20830;SDS011;10576;53.556;9.868;2023-01-24T10:10:49;12.07;;;8.80;;
20830;SDS011;10576;53.556;9.868;2023-01-24T10:15:43;14.55;;;8.98;;
20830;SDS011;10576;53.556;9.868;2023-01-24T10:23:58;15.20;;;9.43;;
20830;SDS011;10576;53.556;9.868;2023-01-24T10:26:32;10.95;;;9.13;;
20830;SDS011;10576;53.556;9.868;2023-01-24T10:29:09;11.88;;;8.82;;
20830;SDS011;10576;53.556;9.868;2023-01-24T10:31:39;13.23;;;8.82;;
20830;SDS011;10576;53.556;9.868;2023-01-24T10:34:10;10.85;;;8.80;;
20830;SDS011;10576;53.556;9.868;2023-01-24T10:36:52;13.70;;;9.30;;
20830;SDS011;10576;53.556;9.868;2023-01-24T10:39:23;10.52;;;8.27;;
20830;SDS011;10576;53.556;9.868;2023-01-24T10:41:48;12.00;;;9.43;;
20830;SDS011;10576;53.556;9.868;2023-01-24T10:44:15;11.57;;;9.20;;
20830;SDS011;10576;53.556;9.868;2023-01-24T10:50:05;14.60;;;9.48;;
20830;SDS011;10576;53.556;9.868;2023-01-24T10:52:40;12.85;;;9.15;;
20830;SDS011;10576;53.556;9.868;2023-01-24T10:58:19;14.93;;;10.10;;
20830;SDS011;10576;53.556;9.868;2023-01-24T11:00:55;13.15;;;9.82;;
20830;SDS011;10576;53.556;9.868;2023-01-24T11:03:24;13.43;;;9.35;;
20830;SDS011;10576;53.556;9.868;2023-01-24T11:05:56;12.63;;;9.60;;
20830;SDS011;10576;53.556;9.868;2023-01-24T11:08:26;12.23;;;9.55;;
20830;SDS011;10576;53.556;9.868;2023-01-24T11:10:59;13.27;;;9.50;;
20830;SDS011;10576;53.556;9.868;2023-01-24T11:18:46;11.10;;;9.40;;
20830;SDS011;10576;53.556;9.868;2023-01-24T11:21:17;11.50;;;8.82;;
20830;SDS011;10576;53.556;9.868;2023-01-24T11:23:44;11.77;;;9.15;;
20830;SDS011;10576;53.556;9.868;2023-01-24T11:26:24;14.20;;;8.98;;
20830;SDS011;10576;53.556;9.868;2023-01-24T11:28:55;13.65;;;9.30;;
20830;SDS011;10576;53.556;9.868;2023-01-24T11:31:38;15.35;;;9.65;;
20830;SDS011;10576;53.556;9.868;2023-01-24T11:47:56;13.98;;;9.85;;
20830;SDS011;10576;53.556;9.868;2023-01-24T12:04:58;13.95;;;9.82;;
20830;SDS011;10576;53.556;9.868;2023-01-24T12:21:40;12.95;;;9.07;;
20830;SDS011;10576;53.556;9.868;2023-01-24T12:24:11;13.33;;;9.53;;
20830;SDS011;10576;53.556;9.868;2023-01-24T12:26:46;13.15;;;9.75;;
20830;SDS011;10576;53.556;9.868;2023-01-24T12:29:36;13.13;;;9.73;;
20830;SDS011;10576;53.556;9.868;2023-01-24T12:32:11;12.77;;;9.20;;
20830;SDS011;10576;53.556;9.868;2023-01-24T12:37:41;15.23;;;9.68;;
20830;SDS011;10576;53.556;9.868;2023-01-24T12:45:56;15.55;;;9.40;;
20830;SDS011;10576;53.556;9.868;2023-01-24T12:48:50;13.90;;;9.63;;
20830;SDS011;10576;53.556;9.868;2023-01-24T12:51:39;13.30;;;9.15;;
20830;SDS011;10576;53.556;9.868;2023-01-24T12:54:17;13.20;;;9.82;;
20830;SDS011;10576;53.556;9.868;2023-01-24T12:56:49;13.05;;;9.48;;
20830;SDS011;10576;53.556;9.868;2023-01-24T12:59:25;13.53;;;10.00;;
20830;SDS011;10576;53.556;9.868;2023-01-24T13:12:25;12.68;;;10.13;;
20830;SDS011;10576;53.556;9.868;2023-01-24T13:14:53;13.32;;;9.95;;
20830;SDS011;10576;53.556;9.868;2023-01-24T13:20:29;15.27;;;10.80;;
20830;SDS011;10576;53.556;9.868;2023-01-24T13:26:02;14.98;;;10.80;;
20830;SDS011;10576;53.556;9.868;2023-01-24T13:28:35;13.60;;;10.82;;
20830;SDS011;10576;53.556;9.868;2023-01-24T13:31:16;12.63;;;10.35;;
20830;SDS011;10576;53.556;9.868;2023-01-24T13:33:54;16.17;;;11.30;;
20830;SDS011;10576;53.556;9.868;2023-01-24T13:38:57;15.90;;;11.27;;
20830;SDS011;10576;53.556;9.868;2023-01-24T13:51:43;15.65;;;11.38;;
20830;SDS011;10576;53.556;9.868;2023-01-24T13:54:39;14.38;;;11.55;;
20830;SDS011;10576;53.556;9.868;2023-01-24T14:10:33;13.77;;;10.93;;
20830;SDS011;10576;53.556;9.868;2023-01-24T14:18:56;13.32;;;11.20;;
20830;SDS011;10576;53.556;9.868;2023-01-24T14:30:23;15.30;;;11.87;;
20830;SDS011;10576;53.556;9.868;2023-01-24T14:32:46;16.30;;;12.05;;
20830;SDS011;10576;53.556;9.868;2023-01-24T14:40:56;17.63;;;12.15;;
20830;SDS011;10576;53.556;9.868;2023-01-24T14:43:23;14.45;;;12.10;;
20830;SDS011;10576;53.556;9.868;2023-01-24T14:45:50;15.30;;;11.75;;
20830;SDS011;10576;53.556;9.868;2023-01-24T14:48:25;17.48;;;11.80;;
20830;SDS011;10576;53.556;9.868;2023-01-24T14:50:58;15.38;;;12.10;;
20830;SDS011;10576;53.556;9.868;2023-01-24T14:53:30;15.02;;;11.52;;
20830;SDS011;10576;53.556;9.868;2023-01-24T14:56:01;15.10;;;12.25;;
20830;SDS011;10576;53.556;9.868;2023-01-24T14:58:28;14.68;;;12.32;;
20830;SDS011;10576;53.556;9.868;2023-01-24T15:00:58;15.80;;;12.45;;
20830;SDS011;10576;53.556;9.868;2023-01-24T15:03:26;14.55;;;11.98;;
20830;SDS011;10576;53.556;9.868;2023-01-24T15:08:23;12.70;;;11.23;;
20830;SDS011;10576;53.556;9.868;2023-01-24T15:10:58;15.63;;;12.23;;
20830;SDS011;10576;53.556;9.868;2023-01-24T15:13:30;17.40;;;11.60;;
20830;SDS011;10576;53.556;9.868;2023-01-24T15:16:00;15.20;;;11.65;;
20830;SDS011;10576;53.556;9.868;2023-01-24T15:20:57;14.00;;;11.80;;
20830;SDS011;10576;53.556;9.868;2023-01-24T15:23:24;14.55;;;12.05;;
20830;SDS011;10576;53.556;9.868;2023-01-24T15:25:54;15.03;;;11.87;;
20830;SDS011;10576;53.556;9.868;2023-01-24T15:28:21;14.90;;;11.32;;
20830;SDS011;10576;53.556;9.868;2023-01-24T15:30:56;14.33;;;11.17;;
20830;SDS011;10576;53.556;9.868;2023-01-24T15:33:22;13.88;;;10.95;;
20830;SDS011;10576;53.556;9.868;2023-01-24T15:35:49;16.25;;;11.55;;
20830;SDS011;10576;53.556;9.868;2023-01-24T15:38:29;15.07;;;12.35;;
20830;SDS011;10576;53.556;9.868;2023-01-24T15:43:32;16.45;;;11.93;;
20830;SDS011;10576;53.556;9.868;2023-01-24T15:46:19;15.50;;;11.95;;
20830;SDS011;10576;53.556;9.868;2023-01-24T15:52:20;16.17;;;12.32;;
20830;SDS011;10576;53.556;9.868;2023-01-24T15:54:48;17.67;;;12.30;;
20830;SDS011;10576;53.556;9.868;2023-01-24T15:57:23;15.80;;;12.25;;
20830;SDS011;10576;53.556;9.868;2023-01-24T15:59:54;17.83;;;12.98;;
20830;SDS011;10576;53.556;9.868;2023-01-24T16:02:24;16.70;;;12.57;;
20830;SDS011;10576;53.556;9.868;2023-01-24T16:04:51;18.75;;;12.90;;
20830;SDS011;10576;53.556;9.868;2023-01-24T16:07:17;16.55;;;12.18;;
20830;SDS011;10576;53.556;9.868;2023-01-24T16:09:43;16.48;;;12.77;;
20830;SDS011;10576;53.556;9.868;2023-01-24T16:12:11;17.73;;;13.70;;
20830;SDS011;10576;53.556;9.868;2023-01-24T16:14:39;18.20;;;13.23;;
20830;SDS011;10576;53.556;9.868;2023-01-24T16:17:17;17.63;;;13.70;;
20830;SDS011;10576;53.556;9.868;2023-01-24T16:19:45;17.35;;;13.20;;
20830;SDS011;10576;53.556;9.868;2023-01-24T16:22:11;16.40;;;12.80;;
20830;SDS011;10576;53.556;9.868;2023-01-24T16:24:36;16.42;;;12.63;;
20830;SDS011;10576;53.556;9.868;2023-01-24T16:27:03;18.02;;;12.68;;
20830;SDS011;10576;53.556;9.868;2023-01-24T16:29:29;17.00;;;12.40;;
20830;SDS011;10576;53.556;9.868;2023-01-24T16:31:56;17.35;;;12.30;;
20830;SDS011;10576;53.556;9.868;2023-01-24T16:34:22;16.27;;;12.60;;
20830;SDS011;10576;53.556;9.868;2023-01-24T16:36:48;16.75;;;12.32;;
20830;SDS011;10576;53.556;9.868;2023-01-24T16:39:18;16.45;;;12.45;;
20830;SDS011;10576;53.556;9.868;2023-01-24T16:41:45;18.48;;;13.15;;
20830;SDS011;10576;53.556;9.868;2023-01-24T16:44:12;16.73;;;12.60;;
20830;SDS011;10576;53.556;9.868;2023-01-24T16:46:38;16.85;;;12.75;;
20830;SDS011;10576;53.556;9.868;2023-01-24T16:49:05;15.80;;;12.88;;
20830;SDS011;10576;53.556;9.868;2023-01-24T16:51:31;15.82;;;12.95;;
20830;SDS011;10576;53.556;9.868;2023-01-24T16:53:57;16.38;;;12.80;;
20830;SDS011;10576;53.556;9.868;2023-01-24T16:56:23;16.98;;;13.45;;
20830;SDS011;10576;53.556;9.868;2023-01-24T16:58:53;17.20;;;13.70;;
20830;SDS011;10576;53.556;9.868;2023-01-24T17:01:20;20.25;;;13.60;;
20830;SDS011;10576;53.556;9.868;2023-01-24T17:03:46;18.17;;;13.45;;
20830;SDS011;10576;53.556;9.868;2023-01-24T17:06:15;16.17;;;13.10;;
20830;SDS011;10576;53.556;9.868;2023-01-24T17:08:41;18.42;;;13.18;;
20830;SDS011;10576;53.556;9.868;2023-01-24T17:11:07;20.00;;;13.67;;
20830;SDS011;10576;53.556;9.868;2023-01-24T17:13:34;20.13;;;14.02;;
20830;SDS011;10576;53.556;9.868;2023-01-24T17:16:06;16.90;;;13.70;;
20830;SDS011;10576;53.556;9.868;2023-01-24T17:18:34;18.55;;;13.65;;
20830;SDS011;10576;53.556;9.868;2023-01-24T17:21:04;19.58;;;14.27;;
20830;SDS011;10576;53.556;9.868;2023-01-24T17:23:31;18.17;;;13.25;;
20830;SDS011;10576;53.556;9.868;2023-01-24T17:26:04;19.45;;;14.63;;
20830;SDS011;10576;53.556;9.868;2023-01-24T17:28:31;18.27;;;13.13;;
20830;SDS011;10576;53.556;9.868;2023-01-24T17:30:57;16.55;;;13.45;;